sensor_id;sensor_type;location;lat;lon;timestamp;pressure;altitude;pressure_sealevel;temperature;humidity
53246;BME280;39569;51.090;-1.786;2023-02-19T00:01:34;101747.44;;;15.04;58.10
53246;BME280;39569;51.090;-1.786;2023-02-19T00:04:03;101744.94;;;14.71;58.23
53246;BME280;39569;51.090;-1.786;2023-02-19T00:06:32;101745.28;;;15.22;57.19
53246;BME280;39569;51.090;-1.786;2023-02-19T00:08:59;101739.38;;;15.26;57.04
53246;BME280;39569;51.090;-1.786;2023-02-19T00:11:28;101747.72;;;14.86;58.10
53246;BME280;39569;51.090;-1.786;2023-02-19T00:13:55;101747.50;;;14.96;57.75
53246;BME280;39569;51.090;-1.786;2023-02-19T00:16:24;101759.50;;;14.46;58.97
53246;BME280;39569;51.090;-1.786;2023-02-19T00:18:53;101774.84;;;14.76;58.17
53246;BME280;39569;51.090;-1.786;2023-02-19T00:21:20;101774.91;;;14.60;58.51
53246;BME280;39569;51.090;-1.786;2023-02-19T00:23:48;101780.47;;;14.90;58.37
53246;BME280;39569;51.090;-1.786;2023-02-19T00:26:16;101790.28;;;14.83;57.72
53246;BME280;39569;51.090;-1.786;2023-02-19T00:28:44;101786.91;;;14.81;58.34
53246;BME280;39569;51.090;-1.786;2023-02-19T00:31:15;101797.03;;;14.70;58.23
53246;BME280;39569;51.090;-1.786;2023-02-19T00:33:43;101796.75;;;14.57;58.65
53246;BME280;39569;51.090;-1.786;2023-02-19T00:36:11;101791.09;;;14.83;57.52
53246;BME280;39569;51.090;-1.786;2023-02-19T00:38:40;101798.97;;;14.54;58.17
53246;BME280;39569;51.090;-1.786;2023-02-19T00:41:07;101796.06;;;14.94;57.78
53246;BME280;39569;51.090;-1.786;2023-02-19T00:43:48;101794.34;;;14.70;57.61
53246;BME280;39569;51.090;-1.786;2023-02-19T00:46:17;101799.41;;;14.73;57.92
53246;BME280;39569;51.090;-1.786;2023-02-19T00:48:44;101793.25;;;14.88;57.20
53246;BME280;39569;51.090;-1.786;2023-02-19T00:51:12;101785.78;;;14.98;57.12
53246;BME280;39569;51.090;-1.786;2023-02-19T00:53:39;101795.78;;;14.89;57.28
53246;BME280;39569;51.090;-1.786;2023-02-19T00:56:07;101791.16;;;14.75;57.34
53246;BME280;39569;51.090;-1.786;2023-02-19T00:58:34;101794.78;;;14.90;57.28
53246;BME280;39569;51.090;-1.786;2023-02-19T01:01:01;101796.16;;;14.31;58.31
53246;BME280;39569;51.090;-1.786;2023-02-19T01:03:30;101791.34;;;14.27;58.88
53246;BME280;39569;51.090;-1.786;2023-02-19T01:05:56;101798.69;;;14.25;58.42
53246;BME280;39569;51.090;-1.786;2023-02-19T01:08:25;101799.94;;;14.61;57.02
53246;BME280;39569;51.090;-1.786;2023-02-19T01:10:52;101810.28;;;14.80;56.77
53246;BME280;39569;51.090;-1.786;2023-02-19T01:13:19;101795.59;;;14.52;56.60
53246;BME280;39569;51.090;-1.786;2023-02-19T01:15:46;101810.94;;;14.35;57.42
53246;BME280;39569;51.090;-1.786;2023-02-19T01:18:12;101814.13;;;14.39;56.97
53246;BME280;39569;51.090;-1.786;2023-02-19T01:20:40;101814.72;;;14.65;56.23
53246;BME280;39569;51.090;-1.786;2023-02-19T01:23:07;101821.81;;;14.97;55.39
53246;BME280;39569;51.090;-1.786;2023-02-19T01:25:38;101819.59;;;14.61;55.96
53246;BME280;39569;51.090;-1.786;2023-02-19T01:28:06;101822.50;;;14.91;55.05
53246;BME280;39569;51.090;-1.786;2023-02-19T01:30:33;101820.94;;;14.65;55.49
53246;BME280;39569;51.090;-1.786;2023-02-19T01:33:01;101823.81;;;14.56;55.73
53246;BME280;39569;51.090;-1.786;2023-02-19T01:35:28;101822.72;;;14.34;56.70
53246;BME280;39569;51.090;-1.786;2023-02-19T01:37:55;101822.91;;;14.09;56.81
53246;BME280;39569;51.090;-1.786;2023-02-19T01:40:22;101828.19;;;14.57;55.87
53246;BME280;39569;51.090;-1.786;2023-02-19T01:42:50;101830.94;;;14.33;56.83
53246;BME280;39569;51.090;-1.786;2023-02-19T01:45:23;101830.56;;;14.52;56.09
53246;BME280;39569;51.090;-1.786;2023-02-19T01:47:58;101846.56;;;14.45;56.04
53246;BME280;39569;51.090;-1.786;2023-02-19T01:50:27;101851.16;;;15.14;53.87
53246;BME280;39569;51.090;-1.786;2023-02-19T01:52:55;101852.00;;;15.45;53.41
53246;BME280;39569;51.090;-1.786;2023-02-19T01:55:22;101853.66;;;15.69;52.65
53246;BME280;39569;51.090;-1.786;2023-02-19T01:57:53;101853.47;;;15.48;53.26
53246;BME280;39569;51.090;-1.786;2023-02-19T02:00:21;101855.28;;;15.55;53.17
53246;BME280;39569;51.090;-1.786;2023-02-19T02:02:52;101855.03;;;15.12;54.24
53246;BME280;39569;51.090;-1.786;2023-02-19T02:05:31;101850.41;;;15.20;54.22
53246;BME280;39569;51.090;-1.786;2023-02-19T02:08:01;101850.00;;;15.31;54.35
53246;BME280;39569;51.090;-1.786;2023-02-19T02:10:45;101856.19;;;14.78;56.29
53246;BME280;39569;51.090;-1.786;2023-02-19T02:13:14;101844.88;;;14.83;56.25
53246;BME280;39569;51.090;-1.786;2023-02-19T02:15:49;101840.06;;;14.70;56.72
53246;BME280;39569;51.090;-1.786;2023-02-19T02:18:26;101840.31;;;14.53;56.88
53246;BME280;39569;51.090;-1.786;2023-02-19T02:21:16;101838.06;;;14.64;56.68
53246;BME280;39569;51.090;-1.786;2023-02-19T02:24:05;101846.69;;;14.52;57.33
53246;BME280;39569;51.090;-1.786;2023-02-19T02:26:46;101851.69;;;14.71;56.94
53246;BME280;39569;51.090;-1.786;2023-02-19T02:29:35;101862.44;;;14.63;56.42
53246;BME280;39569;51.090;-1.786;2023-02-19T02:32:09;101855.09;;;14.49;56.99
53246;BME280;39569;51.090;-1.786;2023-02-19T02:34:42;101852.13;;;14.20;57.86
53246;BME280;39569;51.090;-1.786;2023-02-19T02:37:12;101850.09;;;14.06;58.59
53246;BME280;39569;51.090;-1.786;2023-02-19T02:39:40;101861.38;;;14.01;58.58
53246;BME280;39569;51.090;-1.786;2023-02-19T02:42:07;101854.63;;;14.05;58.57
53246;BME280;39569;51.090;-1.786;2023-02-19T02:44:52;101856.97;;;14.24;58.10
53246;BME280;39569;51.090;-1.786;2023-02-19T02:47:41;101847.72;;;14.43;56.96
53246;BME280;39569;51.090;-1.786;2023-02-19T02:50:14;101847.72;;;14.19;57.51
53246;BME280;39569;51.090;-1.786;2023-02-19T02:52:43;101852.13;;;13.79;58.58
53246;BME280;39569;51.090;-1.786;2023-02-19T02:55:32;101857.50;;;13.96;58.30
53246;BME280;39569;51.090;-1.786;2023-02-19T02:58:02;101861.88;;;14.05;57.87
53246;BME280;39569;51.090;-1.786;2023-02-19T03:00:31;101866.56;;;13.95;58.15
53246;BME280;39569;51.090;-1.786;2023-02-19T03:03:26;101869.91;;;13.72;58.68
53246;BME280;39569;51.090;-1.786;2023-02-19T03:05:57;101867.56;;;13.77;58.14
53246;BME280;39569;51.090;-1.786;2023-02-19T03:08:28;101858.66;;;13.85;57.53
53246;BME280;39569;51.090;-1.786;2023-02-19T03:10:59;101867.22;;;13.72;58.05
53246;BME280;39569;51.090;-1.786;2023-02-19T03:13:50;101880.50;;;13.82;57.61
53246;BME280;39569;51.090;-1.786;2023-02-19T03:16:37;101875.78;;;14.16;56.96
53246;BME280;39569;51.090;-1.786;2023-02-19T03:19:27;101879.47;;;14.07;56.44
53246;BME280;39569;51.090;-1.786;2023-02-19T03:21:59;101877.63;;;14.08;56.36
53246;BME280;39569;51.090;-1.786;2023-02-19T03:24:30;101865.88;;;13.93;57.07
53246;BME280;39569;51.090;-1.786;2023-02-19T03:27:17;101874.25;;;13.49;58.13
53246;BME280;39569;51.090;-1.786;2023-02-19T03:29:48;101880.50;;;14.06;56.69
53246;BME280;39569;51.090;-1.786;2023-02-19T03:32:17;101874.97;;;13.92;56.87
53246;BME280;39569;51.090;-1.786;2023-02-19T03:34:51;101877.00;;;13.98;56.43
53246;BME280;39569;51.090;-1.786;2023-02-19T03:37:23;101884.38;;;13.71;56.88
53246;BME280;39569;51.090;-1.786;2023-02-19T03:39:52;101890.91;;;13.93;56.47
53246;BME280;39569;51.090;-1.786;2023-02-19T03:42:29;101884.81;;;13.59;57.26
53246;BME280;39569;51.090;-1.786;2023-02-19T03:45:04;101892.56;;;13.62;57.44
53246;BME280;39569;51.090;-1.786;2023-02-19T03:47:40;101900.47;;;13.79;56.86
53246;BME280;39569;51.090;-1.786;2023-02-19T03:50:15;101896.44;;;13.67;57.76
53246;BME280;39569;51.090;-1.786;2023-02-19T03:52:52;101904.81;;;13.89;56.47
53246;BME280;39569;51.090;-1.786;2023-02-19T03:55:25;101912.56;;;14.08;56.04
53246;BME280;39569;51.090;-1.786;2023-02-19T03:57:56;101909.69;;;13.85;56.72
53246;BME280;39569;51.090;-1.786;2023-02-19T04:00:29;101904.59;;;13.50;58.08
53246;BME280;39569;51.090;-1.786;2023-02-19T04:03:03;101912.19;;;13.54;57.85
53246;BME280;39569;51.090;-1.786;2023-02-19T04:05:36;101924.94;;;13.68;57.04
53246;BME280;39569;51.090;-1.786;2023-02-19T04:08:10;101914.34;;;13.51;57.48
53246;BME280;39569;51.090;-1.786;2023-02-19T04:10:38;101917.91;;;13.75;57.16
53246;BME280;39569;51.090;-1.786;2023-02-19T04:13:11;101926.47;;;13.71;57.23
53246;BME280;39569;51.090;-1.786;2023-02-19T04:15:41;101932.84;;;13.78;57.27
53246;BME280;39569;51.090;-1.786;2023-02-19T04:18:13;101939.69;;;13.56;57.33
53246;BME280;39569;51.090;-1.786;2023-02-19T04:20:44;101942.31;;;13.40;57.27
53246;BME280;39569;51.090;-1.786;2023-02-19T04:23:13;101945.75;;;13.58;57.63
53246;BME280;39569;51.090;-1.786;2023-02-19T04:25:44;101945.63;;;13.92;56.14
53246;BME280;39569;51.090;-1.786;2023-02-19T04:28:13;101947.78;;;13.89;56.47
53246;BME280;39569;51.090;-1.786;2023-02-19T04:30:41;101944.41;;;13.62;56.70
53246;BME280;39569;51.090;-1.786;2023-02-19T04:33:08;101941.53;;;13.06;58.65
53246;BME280;39569;51.090;-1.786;2023-02-19T04:35:34;101946.66;;;13.33;57.99
53246;BME280;39569;51.090;-1.786;2023-02-19T04:38:03;101957.03;;;13.28;58.61
53246;BME280;39569;51.090;-1.786;2023-02-19T04:40:29;101962.59;;;13.27;58.18
53246;BME280;39569;51.090;-1.786;2023-02-19T04:42:56;101962.69;;;13.67;57.02
53246;BME280;39569;51.090;-1.786;2023-02-19T04:45:23;101959.13;;;13.50;57.41
53246;BME280;39569;51.090;-1.786;2023-02-19T04:47:50;101960.19;;;13.16;57.70
53246;BME280;39569;51.090;-1.786;2023-02-19T04:50:17;101965.03;;;13.62;56.79
53246;BME280;39569;51.090;-1.786;2023-02-19T04:52:44;101966.22;;;13.75;56.55
53246;BME280;39569;51.090;-1.786;2023-02-19T04:55:12;101964.53;;;13.66;56.22
53246;BME280;39569;51.090;-1.786;2023-02-19T04:57:39;101969.34;;;13.47;57.09
53246;BME280;39569;51.090;-1.786;2023-02-19T05:00:07;101968.84;;;13.51;56.79
53246;BME280;39569;51.090;-1.786;2023-02-19T05:02:34;101972.69;;;13.41;56.97
53246;BME280;39569;51.090;-1.786;2023-02-19T05:05:01;101985.00;;;13.59;56.18
53246;BME280;39569;51.090;-1.786;2023-02-19T05:07:28;101990.09;;;13.29;56.81
53246;BME280;39569;51.090;-1.786;2023-02-19T05:09:55;101999.38;;;13.09;57.82
53246;BME280;39569;51.090;-1.786;2023-02-19T05:12:25;101992.22;;;13.17;57.87
53246;BME280;39569;51.090;-1.786;2023-02-19T05:14:52;101982.28;;;13.10;57.95
53246;BME280;39569;51.090;-1.786;2023-02-19T05:17:19;101988.06;;;12.97;58.57
53246;BME280;39569;51.090;-1.786;2023-02-19T05:19:45;101983.75;;;13.04;58.38
53246;BME280;39569;51.090;-1.786;2023-02-19T05:22:12;101989.63;;;13.08;58.24
53246;BME280;39569;51.090;-1.786;2023-02-19T05:24:39;102005.19;;;12.78;58.62
53246;BME280;39569;51.090;-1.786;2023-02-19T05:27:06;102008.22;;;12.58;59.60
53246;BME280;39569;51.090;-1.786;2023-02-19T05:29:34;102006.66;;;12.99;58.86
53246;BME280;39569;51.090;-1.786;2023-02-19T05:32:01;102006.59;;;12.91;58.94
53246;BME280;39569;51.090;-1.786;2023-02-19T05:34:27;102010.56;;;13.04;57.97
53246;BME280;39569;51.090;-1.786;2023-02-19T05:36:54;102018.00;;;13.10;58.26
53246;BME280;39569;51.090;-1.786;2023-02-19T05:39:21;102000.59;;;13.14;57.66
53246;BME280;39569;51.090;-1.786;2023-02-19T05:41:48;102006.81;;;13.23;57.80
53246;BME280;39569;51.090;-1.786;2023-02-19T05:44:14;102006.09;;;13.13;57.33
53246;BME280;39569;51.090;-1.786;2023-02-19T05:46:42;102005.13;;;12.96;58.57
53246;BME280;39569;51.090;-1.786;2023-02-19T05:49:09;101994.91;;;13.17;58.09
53246;BME280;39569;51.090;-1.786;2023-02-19T05:51:36;101998.03;;;12.87;58.84
53246;BME280;39569;51.090;-1.786;2023-02-19T05:54:03;102012.03;;;12.99;58.52
53246;BME280;39569;51.090;-1.786;2023-02-19T05:56:31;102018.50;;;12.88;58.39
53246;BME280;39569;51.090;-1.786;2023-02-19T05:59:00;102015.72;;;12.98;58.65
53246;BME280;39569;51.090;-1.786;2023-02-19T06:01:28;102014.78;;;13.07;57.88
53246;BME280;39569;51.090;-1.786;2023-02-19T06:03:57;101997.06;;;13.22;57.60
53246;BME280;39569;51.090;-1.786;2023-02-19T06:06:24;101993.84;;;13.10;57.35
53246;BME280;39569;51.090;-1.786;2023-02-19T06:08:51;102000.88;;;12.85;57.90
53246;BME280;39569;51.090;-1.786;2023-02-19T06:11:18;102009.66;;;12.96;57.69
53246;BME280;39569;51.090;-1.786;2023-02-19T06:13:45;102024.06;;;12.69;58.43
53246;BME280;39569;51.090;-1.786;2023-02-19T06:16:13;102024.38;;;12.92;57.49
53246;BME280;39569;51.090;-1.786;2023-02-19T06:18:42;102026.75;;;12.95;57.71
53246;BME280;39569;51.090;-1.786;2023-02-19T06:21:11;102017.16;;;12.66;58.09
53246;BME280;39569;51.090;-1.786;2023-02-19T06:23:38;102018.16;;;12.65;58.59
53246;BME280;39569;51.090;-1.786;2023-02-19T06:26:07;102023.41;;;12.49;58.66
53246;BME280;39569;51.090;-1.786;2023-02-19T06:28:35;102034.34;;;12.81;58.21
53246;BME280;39569;51.090;-1.786;2023-02-19T06:31:02;102043.50;;;12.71;57.88
53246;BME280;39569;51.090;-1.786;2023-02-19T06:33:29;102060.81;;;12.59;57.87
53246;BME280;39569;51.090;-1.786;2023-02-19T06:35:58;102059.34;;;12.64;57.77
53246;BME280;39569;51.090;-1.786;2023-02-19T06:38:27;102054.16;;;12.63;58.41
53246;BME280;39569;51.090;-1.786;2023-02-19T06:40:54;102053.00;;;12.65;58.76
53246;BME280;39569;51.090;-1.786;2023-02-19T06:43:21;102052.13;;;12.57;58.49
53246;BME280;39569;51.090;-1.786;2023-02-19T06:45:47;102056.34;;;12.42;58.61
53246;BME280;39569;51.090;-1.786;2023-02-19T06:48:14;102058.97;;;12.59;58.85
53246;BME280;39569;51.090;-1.786;2023-02-19T06:50:41;102063.66;;;12.57;58.07
53246;BME280;39569;51.090;-1.786;2023-02-19T06:53:08;102080.03;;;12.72;57.99
53246;BME280;39569;51.090;-1.786;2023-02-19T06:55:37;102089.47;;;12.58;58.29
53246;BME280;39569;51.090;-1.786;2023-02-19T06:58:05;102092.31;;;12.57;58.65
53246;BME280;39569;51.090;-1.786;2023-02-19T07:00:33;102092.22;;;12.49;59.87
53246;BME280;39569;51.090;-1.786;2023-02-19T07:03:00;102095.81;;;12.75;58.83
53246;BME280;39569;51.090;-1.786;2023-02-19T07:05:26;102088.06;;;12.72;58.88
53246;BME280;39569;51.090;-1.786;2023-02-19T07:07:53;102080.72;;;12.74;58.33
53246;BME280;39569;51.090;-1.786;2023-02-19T07:10:20;102081.47;;;12.66;58.50
53246;BME280;39569;51.090;-1.786;2023-02-19T07:12:48;102079.09;;;12.81;58.39
53246;BME280;39569;51.090;-1.786;2023-02-19T07:15:15;102077.53;;;12.35;59.20
53246;BME280;39569;51.090;-1.786;2023-02-19T07:17:42;102070.75;;;12.66;59.48
53246;BME280;39569;51.090;-1.786;2023-02-19T07:20:09;102081.28;;;12.60;59.26
53246;BME280;39569;51.090;-1.786;2023-02-19T07:22:36;102097.56;;;12.84;58.64
53246;BME280;39569;51.090;-1.786;2023-02-19T07:25:03;102102.69;;;12.95;58.35
53246;BME280;39569;51.090;-1.786;2023-02-19T07:27:30;102094.97;;;12.92;58.18
53246;BME280;39569;51.090;-1.786;2023-02-19T07:29:58;102105.41;;;13.21;57.62
53246;BME280;39569;51.090;-1.786;2023-02-19T07:32:26;102114.47;;;13.02;57.43
53246;BME280;39569;51.090;-1.786;2023-02-19T07:34:53;102115.78;;;13.16;57.37
53246;BME280;39569;51.090;-1.786;2023-02-19T07:37:19;102112.94;;;13.17;56.72
53246;BME280;39569;51.090;-1.786;2023-02-19T07:39:46;102123.66;;;13.17;57.26
53246;BME280;39569;51.090;-1.786;2023-02-19T07:42:14;102117.25;;;13.10;57.56
53246;BME280;39569;51.090;-1.786;2023-02-19T07:44:41;102111.66;;;13.29;57.21
53246;BME280;39569;51.090;-1.786;2023-02-19T07:47:09;102108.41;;;13.18;57.69
53246;BME280;39569;51.090;-1.786;2023-02-19T07:49:36;102116.91;;;13.13;58.54
53246;BME280;39569;51.090;-1.786;2023-02-19T07:52:03;102116.81;;;13.23;58.08
53246;BME280;39569;51.090;-1.786;2023-02-19T07:54:30;102114.69;;;13.60;57.41
53246;BME280;39569;51.090;-1.786;2023-02-19T07:56:57;102109.28;;;13.86;56.06
53246;BME280;39569;51.090;-1.786;2023-02-19T07:59:24;102121.06;;;13.59;57.20
53246;BME280;39569;51.090;-1.786;2023-02-19T08:01:50;102110.66;;;13.90;56.62
53246;BME280;39569;51.090;-1.786;2023-02-19T08:04:36;102113.22;;;14.07;56.14
53246;BME280;39569;51.090;-1.786;2023-02-19T08:07:03;102118.47;;;14.25;55.35
53246;BME280;39569;51.090;-1.786;2023-02-19T08:09:30;102123.78;;;14.50;54.80
53246;BME280;39569;51.090;-1.786;2023-02-19T08:11:57;102110.38;;;14.17;55.25
53246;BME280;39569;51.090;-1.786;2023-02-19T08:14:41;102121.09;;;14.66;54.57
53246;BME280;39569;51.090;-1.786;2023-02-19T08:17:08;102122.31;;;14.88;53.40
53246;BME280;39569;51.090;-1.786;2023-02-19T08:19:37;102126.00;;;14.79;53.96
53246;BME280;39569;51.090;-1.786;2023-02-19T08:22:03;102131.84;;;14.66;53.94
53246;BME280;39569;51.090;-1.786;2023-02-19T08:24:30;102144.50;;;14.90;53.67
53246;BME280;39569;51.090;-1.786;2023-02-19T08:26:58;102147.19;;;15.14;53.01
53246;BME280;39569;51.090;-1.786;2023-02-19T08:29:25;102151.72;;;14.82;53.46
53246;BME280;39569;51.090;-1.786;2023-02-19T08:31:52;102142.31;;;14.86;53.80
53246;BME280;39569;51.090;-1.786;2023-02-19T08:34:19;102135.56;;;14.98;53.33
53246;BME280;39569;51.090;-1.786;2023-02-19T08:36:47;102131.38;;;14.79;53.77
53246;BME280;39569;51.090;-1.786;2023-02-19T08:39:14;102131.88;;;14.83;53.66
53246;BME280;39569;51.090;-1.786;2023-02-19T08:41:40;102136.09;;;14.93;53.78
53246;BME280;39569;51.090;-1.786;2023-02-19T08:44:07;102161.28;;;15.16;53.17
53246;BME280;39569;51.090;-1.786;2023-02-19T08:46:34;102174.59;;;15.34;52.76
53246;BME280;39569;51.090;-1.786;2023-02-19T08:49:01;102181.13;;;15.71;51.99
53246;BME280;39569;51.090;-1.786;2023-02-19T08:51:28;102179.47;;;15.46;52.51
53246;BME280;39569;51.090;-1.786;2023-02-19T08:53:56;102176.25;;;15.67;52.39
53246;BME280;39569;51.090;-1.786;2023-02-19T08:56:22;102180.03;;;15.89;52.11
53246;BME280;39569;51.090;-1.786;2023-02-19T08:58:49;102187.44;;;15.95;51.94
53246;BME280;39569;51.090;-1.786;2023-02-19T09:01:16;102182.78;;;15.81;51.60
53246;BME280;39569;51.090;-1.786;2023-02-19T09:03:43;102178.06;;;15.83;51.91
53246;BME280;39569;51.090;-1.786;2023-02-19T09:06:14;102185.78;;;15.94;51.76
53246;BME280;39569;51.090;-1.786;2023-02-19T09:08:41;102175.28;;;16.07;50.62
53246;BME280;39569;51.090;-1.786;2023-02-19T09:11:09;102187.31;;;16.27;50.53
53246;BME280;39569;51.090;-1.786;2023-02-19T09:13:36;102179.34;;;15.95;51.14
53246;BME280;39569;51.090;-1.786;2023-02-19T09:16:03;102175.22;;;16.53;49.85
53246;BME280;39569;51.090;-1.786;2023-02-19T09:18:30;102175.78;;;16.49;50.00
53246;BME280;39569;51.090;-1.786;2023-02-19T09:20:58;102179.31;;;17.17;48.52
53246;BME280;39569;51.090;-1.786;2023-02-19T09:23:25;102194.75;;;16.86;49.16
53246;BME280;39569;51.090;-1.786;2023-02-19T09:25:56;102194.50;;;17.18;48.67
53246;BME280;39569;51.090;-1.786;2023-02-19T09:28:26;102205.09;;;17.42;47.46
53246;BME280;39569;51.090;-1.786;2023-02-19T09:30:53;102215.09;;;17.94;46.58
53246;BME280;39569;51.090;-1.786;2023-02-19T09:33:19;102209.88;;;18.93;44.19
53246;BME280;39569;51.090;-1.786;2023-02-19T09:35:46;102205.09;;;19.92;42.93
53246;BME280;39569;51.090;-1.786;2023-02-19T09:38:13;102202.75;;;19.83;42.51
53246;BME280;39569;51.090;-1.786;2023-02-19T09:40:40;102208.56;;;19.80;42.26
53246;BME280;39569;51.090;-1.786;2023-02-19T09:43:08;102200.00;;;19.76;42.74
53246;BME280;39569;51.090;-1.786;2023-02-19T09:45:39;102208.88;;;19.36;43.19
53246;BME280;39569;51.090;-1.786;2023-02-19T09:48:06;102202.16;;;18.90;43.79
53246;BME280;39569;51.090;-1.786;2023-02-19T09:50:37;102208.00;;;19.56;42.87
53246;BME280;39569;51.090;-1.786;2023-02-19T09:53:12;102216.38;;;19.89;42.15
53246;BME280;39569;51.090;-1.786;2023-02-19T09:55:42;102213.97;;;20.07;42.60
53246;BME280;39569;51.090;-1.786;2023-02-19T09:58:19;102223.00;;;21.81;38.89
53246;BME280;39569;51.090;-1.786;2023-02-19T10:00:51;102218.56;;;23.01;36.75
53246;BME280;39569;51.090;-1.786;2023-02-19T10:03:22;102218.75;;;22.99;36.14
53246;BME280;39569;51.090;-1.786;2023-02-19T10:05:55;102215.31;;;23.91;34.43
53246;BME280;39569;51.090;-1.786;2023-02-19T10:08:23;102223.50;;;22.79;35.70
53246;BME280;39569;51.090;-1.786;2023-02-19T10:10:51;102237.44;;;21.88;37.53
53246;BME280;39569;51.090;-1.786;2023-02-19T10:13:20;102221.59;;;22.86;35.34
53246;BME280;39569;51.090;-1.786;2023-02-19T10:15:50;102222.88;;;22.77;36.09
53246;BME280;39569;51.090;-1.786;2023-02-19T10:18:21;102226.22;;;22.79;36.79
53246;BME280;39569;51.090;-1.786;2023-02-19T10:20:50;102233.59;;;22.15;36.63
53246;BME280;39569;51.090;-1.786;2023-02-19T10:23:17;102235.09;;;21.98;36.77
53246;BME280;39569;51.090;-1.786;2023-02-19T10:25:46;102244.88;;;20.13;39.94
53246;BME280;39569;51.090;-1.786;2023-02-19T10:28:16;102236.25;;;22.34;36.39
53246;BME280;39569;51.090;-1.786;2023-02-19T10:30:44;102231.31;;;23.63;35.25
53246;BME280;39569;51.090;-1.786;2023-02-19T10:33:15;102226.13;;;25.29;31.28
53246;BME280;39569;51.090;-1.786;2023-02-19T10:35:54;102245.38;;;24.63;32.01
53246;BME280;39569;51.090;-1.786;2023-02-19T10:38:24;102248.31;;;25.39;30.91
53246;BME280;39569;51.090;-1.786;2023-02-19T10:40:58;102257.81;;;26.64;29.22
53246;BME280;39569;51.090;-1.786;2023-02-19T10:43:27;102248.19;;;26.38;28.53
53246;BME280;39569;51.090;-1.786;2023-02-19T10:46:00;102257.84;;;26.41;30.05
53246;BME280;39569;51.090;-1.786;2023-02-19T10:48:31;102255.03;;;25.78;30.68
53246;BME280;39569;51.090;-1.786;2023-02-19T10:51:03;102244.94;;;25.37;31.33
53246;BME280;39569;51.090;-1.786;2023-02-19T10:53:44;102232.59;;;25.05;30.34
53246;BME280;39569;51.090;-1.786;2023-02-19T10:56:13;102237.25;;;27.06;28.20
53246;BME280;39569;51.090;-1.786;2023-02-19T10:58:42;102233.47;;;28.93;25.98
53246;BME280;39569;51.090;-1.786;2023-02-19T11:01:14;102236.03;;;29.31;26.43
53246;BME280;39569;51.090;-1.786;2023-02-19T11:03:42;102242.81;;;29.50;25.12
53246;BME280;39569;51.090;-1.786;2023-02-19T11:06:10;102244.72;;;29.76;24.57
53246;BME280;39569;51.090;-1.786;2023-02-19T11:08:49;102247.47;;;29.76;24.70
53246;BME280;39569;51.090;-1.786;2023-02-19T11:11:26;102240.66;;;29.21;25.17
53246;BME280;39569;51.090;-1.786;2023-02-19T11:13:55;102238.66;;;28.68;26.25
53246;BME280;39569;51.090;-1.786;2023-02-19T11:16:23;102235.81;;;30.58;23.95
53246;BME280;39569;51.090;-1.786;2023-02-19T11:18:55;102238.16;;;31.16;23.44
53246;BME280;39569;51.090;-1.786;2023-02-19T11:21:25;102242.56;;;30.97;23.72
53246;BME280;39569;51.090;-1.786;2023-02-19T11:23:57;102237.00;;;29.42;24.55
53246;BME280;39569;51.090;-1.786;2023-02-19T11:26:26;102228.16;;;28.00;26.94
53246;BME280;39569;51.090;-1.786;2023-02-19T11:28:55;102206.47;;;29.17;25.02
53246;BME280;39569;51.090;-1.786;2023-02-19T11:31:24;102202.81;;;29.74;24.91
53246;BME280;39569;51.090;-1.786;2023-02-19T11:33:58;102208.28;;;29.06;24.53
53246;BME280;39569;51.090;-1.786;2023-02-19T11:36:30;102215.41;;;30.12;24.10
53246;BME280;39569;51.090;-1.786;2023-02-19T11:38:59;102210.25;;;31.13;22.74
53246;BME280;39569;51.090;-1.786;2023-02-19T11:41:53;102213.66;;;28.04;25.18
53246;BME280;39569;51.090;-1.786;2023-02-19T11:44:31;102211.28;;;27.75;27.41
53246;BME280;39569;51.090;-1.786;2023-02-19T11:50:07;102221.84;;;28.21;26.00
53246;BME280;39569;51.090;-1.786;2023-02-19T11:52:41;102215.44;;;26.99;27.42
53246;BME280;39569;51.090;-1.786;2023-02-19T11:55:19;102222.59;;;27.62;26.94
53246;BME280;39569;51.090;-1.786;2023-02-19T11:57:55;102212.75;;;28.42;26.38
53246;BME280;39569;51.090;-1.786;2023-02-19T12:00:28;102225.06;;;27.96;27.19
53246;BME280;39569;51.090;-1.786;2023-02-19T12:06:17;102221.31;;;28.89;24.56
53246;BME280;39569;51.090;-1.786;2023-02-19T12:09:21;102215.00;;;29.47;24.13
53246;BME280;39569;51.090;-1.786;2023-02-19T12:12:04;102213.88;;;29.79;25.08
53246;BME280;39569;51.090;-1.786;2023-02-19T12:14:58;102213.09;;;29.52;23.61
53246;BME280;39569;51.090;-1.786;2023-02-19T12:17:46;102214.81;;;29.00;23.81
53246;BME280;39569;51.090;-1.786;2023-02-19T12:20:24;102210.75;;;30.13;24.38
53246;BME280;39569;51.090;-1.786;2023-02-19T12:23:06;102203.97;;;29.47;24.43
53246;BME280;39569;51.090;-1.786;2023-02-19T12:25:45;102190.38;;;31.26;23.27
53246;BME280;39569;51.090;-1.786;2023-02-19T12:28:34;102193.13;;;30.14;24.08
53246;BME280;39569;51.090;-1.786;2023-02-19T12:31:18;102187.81;;;30.79;22.89
53246;BME280;39569;51.090;-1.786;2023-02-19T12:34:06;102188.59;;;29.92;24.22
53246;BME280;39569;51.090;-1.786;2023-02-19T12:36:43;102181.38;;;27.78;26.05
53246;BME280;39569;51.090;-1.786;2023-02-19T12:39:25;102179.69;;;29.44;25.54
53246;BME280;39569;51.090;-1.786;2023-02-19T12:42:03;102179.31;;;28.07;26.14
53246;BME280;39569;51.090;-1.786;2023-02-19T12:44:37;102172.59;;;27.10;27.25
53246;BME280;39569;51.090;-1.786;2023-02-19T12:47:13;102163.84;;;26.40;27.92
53246;BME280;39569;51.090;-1.786;2023-02-19T12:49:44;102162.41;;;26.49;28.02
53246;BME280;39569;51.090;-1.786;2023-02-19T12:52:18;102161.91;;;27.80;26.81
53246;BME280;39569;51.090;-1.786;2023-02-19T12:54:49;102156.72;;;27.62;27.63
53246;BME280;39569;51.090;-1.786;2023-02-19T12:57:21;102148.41;;;28.17;27.02
53246;BME280;39569;51.090;-1.786;2023-02-19T12:59:52;102144.59;;;27.79;27.26
53246;BME280;39569;51.090;-1.786;2023-02-19T13:02:25;102154.75;;;26.23;29.20
53246;BME280;39569;51.090;-1.786;2023-02-19T13:04:59;102154.13;;;23.98;31.84